CheckWX is a tool to help pilots better visualize weather data.  It is not intended as a substitute for an official pre-flight weather briefing.

03:40:45 UTC

KMIA METAR
Miami International Airport
Miami, Florida, USA
Current

48 mins ago

KMIA 050253Z 22003KT 10SM FEW030 FEW047 BKN250 30/23 A2996 RMK AO2 SLP146 FRQ LTGIC DSNT NE CB DSNT NE MOV E T03000233 51013 $
Observed
Jul-5 @ 02:53 UTC
Wind
  • 220° at 3 KTS
Visibility
10 SM
Flight Rules
VFR
Cloud Levels
  • Few at 3,000' AGL
  • Few at 4,700' AGL
  • Broken at 25,000' AGL
Temperature
30°C / 86°F
Dewpoint
23°C / 73°F
Humidity
66%
Altimeter
29.96" Hg
Pressure
1014.52 hPa
Previous

2 hours ago

KMIA 050153Z 23006KT 10SM FEW040 BKN250 31/23 A2995 RMK AO2 SLP143 T03060233 $
Observed
Jul-5 @ 01:53 UTC
Wind
  • 230° at 6 KTS
Visibility
10 SM
Flight Rules
VFR
Cloud Levels
  • Few at 4,000' AGL
  • Broken at 25,000' AGL
Temperature
31°C / 88°F
Dewpoint
23°C / 73°F
Humidity
62%
Altimeter
29.95" Hg
Pressure
1014.22 hPa
Previous

3 hours ago

KMIA 050053Z 20007KT 10SM FEW043 FEW100 BKN250 31/23 A2994 RMK AO2 LTG DSNT NE SLP138 OCNL LTGICCG DSNT NE CB DSNT NE MOV NE T03110228 $
Observed
Jul-5 @ 00:53 UTC
Wind
  • 200° at 7 KTS
Visibility
10 SM
Flight Rules
VFR
Cloud Levels
  • Few at 4,300' AGL
  • Few at 10,000' AGL
  • Broken at 25,000' AGL
Temperature
31°C / 88°F
Dewpoint
23°C / 73°F
Humidity
62%
Altimeter
29.94" Hg
Pressure
1013.92 hPa